sensor_id;sensor_type;location;lat;lon;timestamp;P1;durP1;ratioP1;P2;durP2;ratioP2
51048;SDS011;37084;55.228;36.450;2022-10-17T00:00:28;4.55;;;2.85;;
51048;SDS011;37084;55.228;36.450;2022-10-17T00:03:29;4.13;;;2.42;;
51048;SDS011;37084;55.228;36.450;2022-10-17T00:06:31;4.97;;;2.92;;
51048;SDS011;37084;55.228;36.450;2022-10-17T00:09:32;4.25;;;2.47;;
51048;SDS011;37084;55.228;36.450;2022-10-17T00:12:34;5.85;;;2.80;;
51048;SDS011;37084;55.228;36.450;2022-10-17T00:15:35;5.25;;;3.08;;
51048;SDS011;37084;55.228;36.450;2022-10-17T00:18:36;6.57;;;2.90;;
51048;SDS011;37084;55.228;36.450;2022-10-17T00:21:38;6.18;;;2.60;;
51048;SDS011;37084;55.228;36.450;2022-10-17T00:27:59;5.18;;;2.63;;
51048;SDS011;37084;55.228;36.450;2022-10-17T00:31:01;5.82;;;2.83;;
51048;SDS011;37084;55.228;36.450;2022-10-17T00:34:04;7.32;;;3.05;;
51048;SDS011;37084;55.228;36.450;2022-10-17T00:37:05;6.00;;;2.90;;
51048;SDS011;37084;55.228;36.450;2022-10-17T00:40:06;6.93;;;3.03;;
51048;SDS011;37084;55.228;36.450;2022-10-17T00:43:12;5.50;;;3.22;;
51048;SDS011;37084;55.228;36.450;2022-10-17T00:46:15;5.10;;;2.60;;
51048;SDS011;37084;55.228;36.450;2022-10-17T00:49:17;7.38;;;2.80;;
51048;SDS011;37084;55.228;36.450;2022-10-17T00:52:20;5.28;;;3.13;;
51048;SDS011;37084;55.228;36.450;2022-10-17T00:55:26;7.00;;;2.83;;
51048;SDS011;37084;55.228;36.450;2022-10-17T00:58:31;7.75;;;2.88;;
51048;SDS011;37084;55.228;36.450;2022-10-17T01:01:33;5.32;;;2.50;;
51048;SDS011;37084;55.228;36.450;2022-10-17T01:04:38;6.20;;;3.08;;
51048;SDS011;37084;55.228;36.450;2022-10-17T01:07:41;5.85;;;2.65;;
51048;SDS011;37084;55.228;36.450;2022-10-17T01:20:38;6.30;;;3.17;;
51048;SDS011;37084;55.228;36.450;2022-10-17T01:37:20;5.28;;;2.80;;
51048;SDS011;37084;55.228;36.450;2022-10-17T01:40:38;6.22;;;3.50;;
51048;SDS011;37084;55.228;36.450;2022-10-17T01:43:46;6.47;;;2.72;;
51048;SDS011;37084;55.228;36.450;2022-10-17T01:46:53;5.90;;;2.50;;
51048;SDS011;37084;55.228;36.450;2022-10-17T01:50:02;5.80;;;2.60;;
51048;SDS011;37084;55.228;36.450;2022-10-17T01:53:10;7.18;;;2.90;;
51048;SDS011;37084;55.228;36.450;2022-10-17T01:56:18;4.85;;;2.20;;
51048;SDS011;37084;55.228;36.450;2022-10-17T01:59:32;5.90;;;3.05;;
51048;SDS011;37084;55.228;36.450;2022-10-17T02:02:37;6.93;;;3.25;;
51048;SDS011;37084;55.228;36.450;2022-10-17T02:05:39;6.32;;;2.92;;
51048;SDS011;37084;55.228;36.450;2022-10-17T02:08:45;6.22;;;2.88;;
51048;SDS011;37084;55.228;36.450;2022-10-17T02:22:34;6.90;;;2.65;;
51048;SDS011;37084;55.228;36.450;2022-10-17T02:29:08;7.07;;;2.88;;
51048;SDS011;37084;55.228;36.450;2022-10-17T02:32:22;4.25;;;2.50;;
51048;SDS011;37084;55.228;36.450;2022-10-17T02:38:33;4.38;;;2.10;;
51048;SDS011;37084;55.228;36.450;2022-10-17T02:41:35;8.88;;;3.28;;
51048;SDS011;37084;55.228;36.450;2022-10-17T02:44:38;8.10;;;2.60;;
51048;SDS011;37084;55.228;36.450;2022-10-17T02:51:22;7.50;;;3.10;;
51048;SDS011;37084;55.228;36.450;2022-10-17T02:54:46;4.07;;;2.30;;
51048;SDS011;37084;55.228;36.450;2022-10-17T02:58:11;5.55;;;2.97;;
51048;SDS011;37084;55.228;36.450;2022-10-17T03:01:15;6.38;;;3.33;;
51048;SDS011;37084;55.228;36.450;2022-10-17T03:04:17;7.72;;;2.97;;
51048;SDS011;37084;55.228;36.450;2022-10-17T03:07:18;6.13;;;3.38;;
51048;SDS011;37084;55.228;36.450;2022-10-17T03:10:20;5.70;;;2.95;;
51048;SDS011;37084;55.228;36.450;2022-10-17T03:13:22;6.90;;;2.50;;
51048;SDS011;37084;55.228;36.450;2022-10-17T03:16:24;4.72;;;2.60;;
51048;SDS011;37084;55.228;36.450;2022-10-17T03:19:25;6.13;;;3.25;;
51048;SDS011;37084;55.228;36.450;2022-10-17T03:22:27;9.07;;;3.28;;
51048;SDS011;37084;55.228;36.450;2022-10-17T03:25:29;3.95;;;2.13;;
51048;SDS011;37084;55.228;36.450;2022-10-17T03:28:31;6.88;;;3.03;;
51048;SDS011;37084;55.228;36.450;2022-10-17T03:31:33;7.13;;;2.80;;
51048;SDS011;37084;55.228;36.450;2022-10-17T03:34:36;7.55;;;2.92;;
51048;SDS011;37084;55.228;36.450;2022-10-17T03:37:37;5.93;;;2.88;;
51048;SDS011;37084;55.228;36.450;2022-10-17T03:40:38;4.47;;;2.47;;
51048;SDS011;37084;55.228;36.450;2022-10-17T03:43:40;7.35;;;3.30;;
51048;SDS011;37084;55.228;36.450;2022-10-17T03:46:42;6.18;;;3.00;;
51048;SDS011;37084;55.228;36.450;2022-10-17T03:49:44;6.20;;;3.38;;
51048;SDS011;37084;55.228;36.450;2022-10-17T03:52:46;5.13;;;2.30;;
51048;SDS011;37084;55.228;36.450;2022-10-17T03:55:48;6.70;;;2.83;;
51048;SDS011;37084;55.228;36.450;2022-10-17T03:58:50;5.60;;;3.10;;
51048;SDS011;37084;55.228;36.450;2022-10-17T04:01:51;7.82;;;2.80;;
51048;SDS011;37084;55.228;36.450;2022-10-17T04:04:53;6.78;;;2.88;;
51048;SDS011;37084;55.228;36.450;2022-10-17T04:07:54;6.15;;;3.38;;
51048;SDS011;37084;55.228;36.450;2022-10-17T04:11:09;7.07;;;3.28;;
51048;SDS011;37084;55.228;36.450;2022-10-17T04:14:13;6.95;;;3.13;;
51048;SDS011;37084;55.228;36.450;2022-10-17T04:17:16;6.75;;;3.25;;
51048;SDS011;37084;55.228;36.450;2022-10-17T04:20:18;7.57;;;2.70;;
51048;SDS011;37084;55.228;36.450;2022-10-17T04:23:20;5.93;;;3.53;;
51048;SDS011;37084;55.228;36.450;2022-10-17T04:26:23;5.78;;;3.17;;
51048;SDS011;37084;55.228;36.450;2022-10-17T04:29:24;4.93;;;3.13;;
51048;SDS011;37084;55.228;36.450;2022-10-17T04:32:35;7.20;;;3.17;;
51048;SDS011;37084;55.228;36.450;2022-10-17T04:35:53;5.10;;;2.75;;
51048;SDS011;37084;55.228;36.450;2022-10-17T04:38:56;3.58;;;2.33;;
51048;SDS011;37084;55.228;36.450;2022-10-17T04:41:57;4.00;;;2.72;;
51048;SDS011;37084;55.228;36.450;2022-10-17T04:44:58;6.63;;;2.65;;
51048;SDS011;37084;55.228;36.450;2022-10-17T04:48:00;5.80;;;3.00;;
51048;SDS011;37084;55.228;36.450;2022-10-17T04:51:04;6.13;;;2.63;;
51048;SDS011;37084;55.228;36.450;2022-10-17T04:54:14;6.45;;;3.40;;
51048;SDS011;37084;55.228;36.450;2022-10-17T04:57:17;6.35;;;2.90;;
51048;SDS011;37084;55.228;36.450;2022-10-17T05:00:28;6.50;;;3.05;;
51048;SDS011;37084;55.228;36.450;2022-10-17T05:03:34;4.95;;;3.25;;
51048;SDS011;37084;55.228;36.450;2022-10-17T05:06:42;5.30;;;3.05;;
51048;SDS011;37084;55.228;36.450;2022-10-17T05:13:18;10.50;;;3.42;;
51048;SDS011;37084;55.228;36.450;2022-10-17T05:16:20;6.38;;;3.10;;
51048;SDS011;37084;55.228;36.450;2022-10-17T05:19:21;6.43;;;3.38;;
51048;SDS011;37084;55.228;36.450;2022-10-17T05:22:24;6.57;;;3.53;;
51048;SDS011;37084;55.228;36.450;2022-10-17T05:25:26;7.18;;;3.25;;
51048;SDS011;37084;55.228;36.450;2022-10-17T05:28:27;6.07;;;2.67;;
51048;SDS011;37084;55.228;36.450;2022-10-17T05:31:32;5.57;;;2.70;;
51048;SDS011;37084;55.228;36.450;2022-10-17T05:34:33;7.60;;;3.33;;
51048;SDS011;37084;55.228;36.450;2022-10-17T05:37:35;6.85;;;2.80;;
51048;SDS011;37084;55.228;36.450;2022-10-17T05:40:38;7.00;;;3.17;;
51048;SDS011;37084;55.228;36.450;2022-10-17T05:43:39;7.13;;;3.25;;
51048;SDS011;37084;55.228;36.450;2022-10-17T05:46:40;5.50;;;2.72;;
51048;SDS011;37084;55.228;36.450;2022-10-17T05:49:42;8.40;;;3.28;;
51048;SDS011;37084;55.228;36.450;2022-10-17T05:52:44;9.30;;;3.13;;
51048;SDS011;37084;55.228;36.450;2022-10-17T05:55:56;5.53;;;3.08;;
51048;SDS011;37084;55.228;36.450;2022-10-17T05:59:00;4.35;;;2.53;;
51048;SDS011;37084;55.228;36.450;2022-10-17T06:02:23;8.93;;;3.10;;
51048;SDS011;37084;55.228;36.450;2022-10-17T06:05:25;5.60;;;3.20;;
51048;SDS011;37084;55.228;36.450;2022-10-17T06:08:27;5.80;;;2.88;;
51048;SDS011;37084;55.228;36.450;2022-10-17T06:11:28;4.53;;;2.55;;
51048;SDS011;37084;55.228;36.450;2022-10-17T06:14:29;5.18;;;3.08;;
51048;SDS011;37084;55.228;36.450;2022-10-17T06:17:35;7.43;;;3.22;;
51048;SDS011;37084;55.228;36.450;2022-10-17T06:20:36;5.32;;;3.17;;
51048;SDS011;37084;55.228;36.450;2022-10-17T06:23:39;7.32;;;3.20;;
51048;SDS011;37084;55.228;36.450;2022-10-17T06:27:04;4.93;;;3.28;;
51048;SDS011;37084;55.228;36.450;2022-10-17T06:30:05;8.50;;;3.65;;
51048;SDS011;37084;55.228;36.450;2022-10-17T06:33:07;6.95;;;2.70;;
51048;SDS011;37084;55.228;36.450;2022-10-17T06:36:10;3.88;;;2.38;;
51048;SDS011;37084;55.228;36.450;2022-10-17T06:39:12;6.60;;;3.60;;
51048;SDS011;37084;55.228;36.450;2022-10-17T06:42:19;4.30;;;2.33;;
51048;SDS011;37084;55.228;36.450;2022-10-17T06:45:50;5.95;;;3.00;;
51048;SDS011;37084;55.228;36.450;2022-10-17T06:49:03;6.50;;;3.60;;
51048;SDS011;37084;55.228;36.450;2022-10-17T06:52:22;6.03;;;2.95;;
51048;SDS011;37084;55.228;36.450;2022-10-17T06:55:43;5.70;;;2.97;;
51048;SDS011;37084;55.228;36.450;2022-10-17T06:58:54;5.25;;;3.28;;
51048;SDS011;37084;55.228;36.450;2022-10-17T07:02:02;6.05;;;2.47;;
51048;SDS011;37084;55.228;36.450;2022-10-17T07:05:05;5.25;;;3.22;;
51048;SDS011;37084;55.228;36.450;2022-10-17T07:08:08;6.75;;;3.78;;
51048;SDS011;37084;55.228;36.450;2022-10-17T07:11:13;7.43;;;3.72;;
51048;SDS011;37084;55.228;36.450;2022-10-17T07:14:16;7.55;;;2.88;;
51048;SDS011;37084;55.228;36.450;2022-10-17T07:17:17;5.80;;;3.10;;
51048;SDS011;37084;55.228;36.450;2022-10-17T07:20:19;7.55;;;3.47;;
51048;SDS011;37084;55.228;36.450;2022-10-17T07:23:21;6.47;;;3.58;;
51048;SDS011;37084;55.228;36.450;2022-10-17T07:26:23;5.95;;;3.10;;
51048;SDS011;37084;55.228;36.450;2022-10-17T07:29:24;6.53;;;3.35;;
51048;SDS011;37084;55.228;36.450;2022-10-17T07:32:42;6.07;;;3.15;;
51048;SDS011;37084;55.228;36.450;2022-10-17T07:35:43;9.32;;;3.70;;
51048;SDS011;37084;55.228;36.450;2022-10-17T07:38:45;7.20;;;3.78;;
51048;SDS011;37084;55.228;36.450;2022-10-17T07:41:47;6.30;;;3.47;;
51048;SDS011;37084;55.228;36.450;2022-10-17T07:44:51;8.68;;;3.58;;
51048;SDS011;37084;55.228;36.450;2022-10-17T07:47:56;8.27;;;3.67;;
51048;SDS011;37084;55.228;36.450;2022-10-17T07:51:00;6.38;;;3.22;;
51048;SDS011;37084;55.228;36.450;2022-10-17T07:57:05;6.88;;;3.65;;
51048;SDS011;37084;55.228;36.450;2022-10-17T08:00:07;5.75;;;2.67;;
51048;SDS011;37084;55.228;36.450;2022-10-17T08:03:13;5.03;;;2.58;;
51048;SDS011;37084;55.228;36.450;2022-10-17T08:06:14;5.90;;;3.72;;
51048;SDS011;37084;55.228;36.450;2022-10-17T08:09:16;7.15;;;2.85;;
51048;SDS011;37084;55.228;36.450;2022-10-17T08:12:17;8.25;;;4.03;;
51048;SDS011;37084;55.228;36.450;2022-10-17T08:15:19;7.22;;;4.25;;
51048;SDS011;37084;55.228;36.450;2022-10-17T08:18:20;6.70;;;3.80;;
51048;SDS011;37084;55.228;36.450;2022-10-17T08:21:21;8.10;;;4.35;;
51048;SDS011;37084;55.228;36.450;2022-10-17T08:24:22;7.13;;;3.45;;
51048;SDS011;37084;55.228;36.450;2022-10-17T08:27:24;9.50;;;4.28;;
51048;SDS011;37084;55.228;36.450;2022-10-17T08:30:27;10.45;;;4.68;;
51048;SDS011;37084;55.228;36.450;2022-10-17T08:33:30;8.57;;;3.85;;
51048;SDS011;37084;55.228;36.450;2022-10-17T08:36:33;10.13;;;3.50;;
51048;SDS011;37084;55.228;36.450;2022-10-17T08:39:34;7.25;;;3.42;;
51048;SDS011;37084;55.228;36.450;2022-10-17T08:46:06;10.27;;;4.97;;
51048;SDS011;37084;55.228;36.450;2022-10-17T08:49:10;10.00;;;4.68;;
51048;SDS011;37084;55.228;36.450;2022-10-17T08:55:49;9.85;;;4.30;;
51048;SDS011;37084;55.228;36.450;2022-10-17T08:58:51;10.75;;;4.65;;
51048;SDS011;37084;55.228;36.450;2022-10-17T09:02:03;9.02;;;3.80;;
51048;SDS011;37084;55.228;36.450;2022-10-17T09:05:25;8.50;;;4.07;;
51048;SDS011;37084;55.228;36.450;2022-10-17T09:08:46;10.25;;;6.05;;
51048;SDS011;37084;55.228;36.450;2022-10-17T09:18:24;8.50;;;4.22;;
51048;SDS011;37084;55.228;36.450;2022-10-17T09:21:35;10.32;;;5.07;;
51048;SDS011;37084;55.228;36.450;2022-10-17T09:24:43;9.13;;;4.85;;
51048;SDS011;37084;55.228;36.450;2022-10-17T09:27:53;9.50;;;5.45;;
51048;SDS011;37084;55.228;36.450;2022-10-17T09:31:03;12.18;;;5.80;;
51048;SDS011;37084;55.228;36.450;2022-10-17T09:34:07;10.57;;;4.97;;
51048;SDS011;37084;55.228;36.450;2022-10-17T09:37:13;9.52;;;3.88;;
51048;SDS011;37084;55.228;36.450;2022-10-17T09:40:24;12.10;;;5.38;;
51048;SDS011;37084;55.228;36.450;2022-10-17T09:49:38;9.35;;;4.53;;
51048;SDS011;37084;55.228;36.450;2022-10-17T09:52:42;10.38;;;4.05;;
51048;SDS011;37084;55.228;36.450;2022-10-17T09:55:49;10.63;;;5.20;;
51048;SDS011;37084;55.228;36.450;2022-10-17T09:58:58;8.30;;;3.72;;
51048;SDS011;37084;55.228;36.450;2022-10-17T10:05:14;8.80;;;4.32;;
51048;SDS011;37084;55.228;36.450;2022-10-17T10:08:17;9.27;;;4.90;;
51048;SDS011;37084;55.228;36.450;2022-10-17T10:11:23;12.77;;;4.93;;
51048;SDS011;37084;55.228;36.450;2022-10-17T10:14:35;8.07;;;4.20;;
51048;SDS011;37084;55.228;36.450;2022-10-17T10:17:39;9.90;;;5.22;;
51048;SDS011;37084;55.228;36.450;2022-10-17T10:20:41;7.45;;;4.63;;
51048;SDS011;37084;55.228;36.450;2022-10-17T10:24:09;10.80;;;5.53;;
51048;SDS011;37084;55.228;36.450;2022-10-17T10:27:11;9.82;;;5.28;;
51048;SDS011;37084;55.228;36.450;2022-10-17T10:30:32;10.88;;;5.95;;
51048;SDS011;37084;55.228;36.450;2022-10-17T10:33:34;11.75;;;5.03;;
51048;SDS011;37084;55.228;36.450;2022-10-17T10:36:44;10.25;;;5.35;;
51048;SDS011;37084;55.228;36.450;2022-10-17T10:40:30;10.73;;;5.45;;
51048;SDS011;37084;55.228;36.450;2022-10-17T10:43:47;9.82;;;5.40;;
51048;SDS011;37084;55.228;36.450;2022-10-17T10:47:04;11.10;;;5.45;;
51048;SDS011;37084;55.228;36.450;2022-10-17T10:50:25;10.35;;;5.43;;
51048;SDS011;37084;55.228;36.450;2022-10-17T10:53:41;11.93;;;6.35;;
51048;SDS011;37084;55.228;36.450;2022-10-17T10:56:49;8.90;;;5.18;;
51048;SDS011;37084;55.228;36.450;2022-10-17T10:59:55;13.02;;;6.85;;
51048;SDS011;37084;55.228;36.450;2022-10-17T11:04:00;14.48;;;7.55;;
51048;SDS011;37084;55.228;36.450;2022-10-17T11:06:40;9.23;;;6.03;;
51048;SDS011;37084;55.228;36.450;2022-10-17T11:09:52;13.57;;;7.30;;
51048;SDS011;37084;55.228;36.450;2022-10-17T11:12:56;9.05;;;4.72;;
51048;SDS011;37084;55.228;36.450;2022-10-17T11:22:41;12.43;;;5.68;;
51048;SDS011;37084;55.228;36.450;2022-10-17T11:25:44;14.82;;;7.00;;
51048;SDS011;37084;55.228;36.450;2022-10-17T11:28:46;14.15;;;6.80;;
51048;SDS011;37084;55.228;36.450;2022-10-17T11:31:49;8.38;;;5.10;;
51048;SDS011;37084;55.228;36.450;2022-10-17T11:34:56;15.40;;;7.35;;
51048;SDS011;37084;55.228;36.450;2022-10-17T11:44:35;10.43;;;4.97;;
51048;SDS011;37084;55.228;36.450;2022-10-17T11:47:43;15.43;;;6.90;;
51048;SDS011;37084;55.228;36.450;2022-10-17T11:50:48;19.45;;;6.50;;
51048;SDS011;37084;55.228;36.450;2022-10-17T11:54:07;13.45;;;7.13;;
51048;SDS011;37084;55.228;36.450;2022-10-17T12:13:56;16.38;;;6.28;;
51048;SDS011;37084;55.228;36.450;2022-10-17T12:16:58;18.45;;;7.57;;
51048;SDS011;37084;55.228;36.450;2022-10-17T12:23:26;16.30;;;6.63;;
51048;SDS011;37084;55.228;36.450;2022-10-17T12:26:28;15.60;;;6.72;;
51048;SDS011;37084;55.228;36.450;2022-10-17T12:29:30;18.02;;;7.30;;
51048;SDS011;37084;55.228;36.450;2022-10-17T12:32:58;13.38;;;6.18;;
51048;SDS011;37084;55.228;36.450;2022-10-17T12:42:28;17.90;;;7.72;;
51048;SDS011;37084;55.228;36.450;2022-10-17T12:45:45;21.20;;;8.32;;
51048;SDS011;37084;55.228;36.450;2022-10-17T12:55:30;19.10;;;8.38;;
51048;SDS011;37084;55.228;36.450;2022-10-17T12:58:33;14.05;;;6.82;;
51048;SDS011;37084;55.228;36.450;2022-10-17T13:01:35;14.82;;;6.50;;
51048;SDS011;37084;55.228;36.450;2022-10-17T13:04:37;13.52;;;6.63;;
51048;SDS011;37084;55.228;36.450;2022-10-17T13:07:39;13.57;;;6.60;;
51048;SDS011;37084;55.228;36.450;2022-10-17T13:10:43;18.38;;;7.70;;
51048;SDS011;37084;55.228;36.450;2022-10-17T13:13:46;18.63;;;8.05;;
51048;SDS011;37084;55.228;36.450;2022-10-17T13:16:58;12.02;;;5.93;;
51048;SDS011;37084;55.228;36.450;2022-10-17T13:20:02;19.17;;;7.80;;
51048;SDS011;37084;55.228;36.450;2022-10-17T13:23:03;16.23;;;6.72;;
51048;SDS011;37084;55.228;36.450;2022-10-17T13:26:06;19.73;;;8.25;;
51048;SDS011;37084;55.228;36.450;2022-10-17T13:29:13;18.40;;;8.77;;
51048;SDS011;37084;55.228;36.450;2022-10-17T13:32:22;15.25;;;7.53;;
51048;SDS011;37084;55.228;36.450;2022-10-17T13:35:34;15.27;;;6.93;;
51048;SDS011;37084;55.228;36.450;2022-10-17T13:38:38;19.27;;;8.98;;
51048;SDS011;37084;55.228;36.450;2022-10-17T13:41:39;15.93;;;7.82;;
51048;SDS011;37084;55.228;36.450;2022-10-17T13:44:41;19.35;;;8.18;;
51048;SDS011;37084;55.228;36.450;2022-10-17T13:47:42;16.88;;;7.57;;
51048;SDS011;37084;55.228;36.450;2022-10-17T13:54:16;13.88;;;6.88;;
51048;SDS011;37084;55.228;36.450;2022-10-17T13:57:34;21.70;;;8.15;;
51048;SDS011;37084;55.228;36.450;2022-10-17T14:00:35;16.20;;;8.65;;
51048;SDS011;37084;55.228;36.450;2022-10-17T14:03:37;12.45;;;6.45;;
51048;SDS011;37084;55.228;36.450;2022-10-17T14:06:42;18.35;;;7.72;;
51048;SDS011;37084;55.228;36.450;2022-10-17T14:09:45;14.63;;;7.75;;
51048;SDS011;37084;55.228;36.450;2022-10-17T14:12:46;16.98;;;7.43;;
51048;SDS011;37084;55.228;36.450;2022-10-17T14:15:48;20.83;;;8.68;;
51048;SDS011;37084;55.228;36.450;2022-10-17T14:18:50;18.70;;;7.53;;
51048;SDS011;37084;55.228;36.450;2022-10-17T14:28:31;16.13;;;7.88;;
51048;SDS011;37084;55.228;36.450;2022-10-17T14:31:33;20.23;;;9.18;;
51048;SDS011;37084;55.228;36.450;2022-10-17T14:34:36;16.60;;;7.80;;
51048;SDS011;37084;55.228;36.450;2022-10-17T14:37:46;20.02;;;8.48;;
51048;SDS011;37084;55.228;36.450;2022-10-17T14:40:54;20.02;;;8.32;;
51048;SDS011;37084;55.228;36.450;2022-10-17T14:44:00;22.83;;;8.70;;
51048;SDS011;37084;55.228;36.450;2022-10-17T14:47:05;24.10;;;9.73;;
51048;SDS011;37084;55.228;36.450;2022-10-17T14:56:21;18.20;;;9.32;;
51048;SDS011;37084;55.228;36.450;2022-10-17T14:59:24;17.63;;;7.95;;
51048;SDS011;37084;55.228;36.450;2022-10-17T15:02:27;16.73;;;8.15;;
51048;SDS011;37084;55.228;36.450;2022-10-17T15:05:29;16.13;;;7.28;;
51048;SDS011;37084;55.228;36.450;2022-10-17T15:08:30;16.83;;;8.50;;
51048;SDS011;37084;55.228;36.450;2022-10-17T15:11:31;18.25;;;8.55;;
51048;SDS011;37084;55.228;36.450;2022-10-17T15:14:33;15.70;;;7.75;;
51048;SDS011;37084;55.228;36.450;2022-10-17T15:17:34;18.05;;;8.23;;
51048;SDS011;37084;55.228;36.450;2022-10-17T15:20:35;18.90;;;7.75;;
51048;SDS011;37084;55.228;36.450;2022-10-17T15:23:37;17.65;;;8.80;;
51048;SDS011;37084;55.228;36.450;2022-10-17T15:26:38;18.90;;;9.07;;
51048;SDS011;37084;55.228;36.450;2022-10-17T15:29:58;16.08;;;7.90;;
51048;SDS011;37084;55.228;36.450;2022-10-17T15:33:00;15.73;;;7.38;;
51048;SDS011;37084;55.228;36.450;2022-10-17T15:36:01;14.07;;;6.75;;
51048;SDS011;37084;55.228;36.450;2022-10-17T15:39:02;20.88;;;8.98;;
51048;SDS011;37084;55.228;36.450;2022-10-17T15:42:07;23.02;;;9.70;;
51048;SDS011;37084;55.228;36.450;2022-10-17T15:45:10;20.38;;;8.75;;
51048;SDS011;37084;55.228;36.450;2022-10-17T15:48:17;21.00;;;8.48;;
51048;SDS011;37084;55.228;36.450;2022-10-17T15:54:21;21.90;;;8.75;;
51048;SDS011;37084;55.228;36.450;2022-10-17T15:57:26;21.20;;;8.63;;
51048;SDS011;37084;55.228;36.450;2022-10-17T16:00:28;20.05;;;8.77;;
51048;SDS011;37084;55.228;36.450;2022-10-17T16:03:29;24.95;;;10.13;;
51048;SDS011;37084;55.228;36.450;2022-10-17T16:06:31;23.02;;;9.02;;
51048;SDS011;37084;55.228;36.450;2022-10-17T16:09:32;21.30;;;9.15;;
51048;SDS011;37084;55.228;36.450;2022-10-17T16:12:34;20.52;;;9.00;;
51048;SDS011;37084;55.228;36.450;2022-10-17T16:15:40;19.23;;;8.90;;
51048;SDS011;37084;55.228;36.450;2022-10-17T16:18:42;19.15;;;8.90;;
51048;SDS011;37084;55.228;36.450;2022-10-17T16:21:43;18.55;;;8.15;;
51048;SDS011;37084;55.228;36.450;2022-10-17T16:24:44;16.90;;;8.13;;
51048;SDS011;37084;55.228;36.450;2022-10-17T16:27:46;19.00;;;8.57;;
51048;SDS011;37084;55.228;36.450;2022-10-17T16:34:19;12.90;;;7.05;;
51048;SDS011;37084;55.228;36.450;2022-10-17T16:37:20;18.17;;;7.75;;
51048;SDS011;37084;55.228;36.450;2022-10-17T16:40:21;21.98;;;9.02;;
51048;SDS011;37084;55.228;36.450;2022-10-17T16:43:24;20.73;;;8.75;;
51048;SDS011;37084;55.228;36.450;2022-10-17T16:46:26;20.92;;;8.77;;
51048;SDS011;37084;55.228;36.450;2022-10-17T16:49:28;21.40;;;9.70;;
51048;SDS011;37084;55.228;36.450;2022-10-17T16:52:30;20.20;;;7.97;;
51048;SDS011;37084;55.228;36.450;2022-10-17T16:55:31;23.10;;;8.60;;
51048;SDS011;37084;55.228;36.450;2022-10-17T16:58:32;18.02;;;7.97;;
51048;SDS011;37084;55.228;36.450;2022-10-17T17:01:33;19.35;;;8.40;;
51048;SDS011;37084;55.228;36.450;2022-10-17T17:04:35;16.48;;;8.45;;
51048;SDS011;37084;55.228;36.450;2022-10-17T17:07:37;18.88;;;7.28;;
51048;SDS011;37084;55.228;36.450;2022-10-17T17:10:42;21.63;;;9.02;;
51048;SDS011;37084;55.228;36.450;2022-10-17T17:13:48;17.00;;;7.93;;
51048;SDS011;37084;55.228;36.450;2022-10-17T17:16:50;17.05;;;7.78;;
51048;SDS011;37084;55.228;36.450;2022-10-17T17:19:51;16.85;;;8.18;;
51048;SDS011;37084;55.228;36.450;2022-10-17T17:22:52;16.85;;;8.93;;
51048;SDS011;37084;55.228;36.450;2022-10-17T17:25:57;20.10;;;8.55;;
51048;SDS011;37084;55.228;36.450;2022-10-17T17:29:00;19.25;;;7.38;;
51048;SDS011;37084;55.228;36.450;2022-10-17T17:32:01;19.73;;;8.80;;
51048;SDS011;37084;55.228;36.450;2022-10-17T17:35:03;18.95;;;8.32;;
51048;SDS011;37084;55.228;36.450;2022-10-17T17:38:04;15.95;;;8.25;;
51048;SDS011;37084;55.228;36.450;2022-10-17T17:41:09;20.67;;;8.93;;
51048;SDS011;37084;55.228;36.450;2022-10-17T17:44:12;17.90;;;8.70;;
51048;SDS011;37084;55.228;36.450;2022-10-17T17:47:14;20.17;;;8.48;;
51048;SDS011;37084;55.228;36.450;2022-10-17T17:50:15;15.85;;;7.90;;
51048;SDS011;37084;55.228;36.450;2022-10-17T17:53:17;19.05;;;9.00;;
51048;SDS011;37084;55.228;36.450;2022-10-17T17:56:22;18.73;;;8.45;;
51048;SDS011;37084;55.228;36.450;2022-10-17T17:59:27;18.60;;;8.35;;
51048;SDS011;37084;55.228;36.450;2022-10-17T18:02:28;20.75;;;9.02;;
51048;SDS011;37084;55.228;36.450;2022-10-17T18:05:30;19.13;;;9.40;;
51048;SDS011;37084;55.228;36.450;2022-10-17T18:08:32;18.77;;;9.45;;
51048;SDS011;37084;55.228;36.450;2022-10-17T18:11:34;18.23;;;8.75;;
51048;SDS011;37084;55.228;36.450;2022-10-17T18:17:56;17.63;;;8.20;;
51048;SDS011;37084;55.228;36.450;2022-10-17T18:20:59;18.60;;;8.27;;
51048;SDS011;37084;55.228;36.450;2022-10-17T18:24:01;19.23;;;8.73;;
51048;SDS011;37084;55.228;36.450;2022-10-17T18:27:04;19.48;;;8.85;;
51048;SDS011;37084;55.228;36.450;2022-10-17T18:30:05;19.50;;;8.55;;
51048;SDS011;37084;55.228;36.450;2022-10-17T18:33:08;17.65;;;8.52;;
51048;SDS011;37084;55.228;36.450;2022-10-17T18:36:10;16.27;;;7.90;;
51048;SDS011;37084;55.228;36.450;2022-10-17T18:39:13;17.20;;;8.45;;
51048;SDS011;37084;55.228;36.450;2022-10-17T18:42:14;19.95;;;8.40;;
51048;SDS011;37084;55.228;36.450;2022-10-17T18:45:15;18.58;;;8.63;;
51048;SDS011;37084;55.228;36.450;2022-10-17T18:48:17;16.23;;;8.07;;
51048;SDS011;37084;55.228;36.450;2022-10-17T18:51:19;16.40;;;8.20;;
51048;SDS011;37084;55.228;36.450;2022-10-17T18:54:21;18.58;;;8.77;;
51048;SDS011;37084;55.228;36.450;2022-10-17T18:57:24;18.52;;;8.30;;
51048;SDS011;37084;55.228;36.450;2022-10-17T19:00:25;19.77;;;8.93;;
51048;SDS011;37084;55.228;36.450;2022-10-17T19:03:26;22.52;;;7.53;;
51048;SDS011;37084;55.228;36.450;2022-10-17T19:06:28;18.17;;;8.82;;
51048;SDS011;37084;55.228;36.450;2022-10-17T19:09:31;19.90;;;8.95;;
51048;SDS011;37084;55.228;36.450;2022-10-17T19:12:32;19.23;;;8.20;;
51048;SDS011;37084;55.228;36.450;2022-10-17T19:15:34;17.65;;;9.20;;
51048;SDS011;37084;55.228;36.450;2022-10-17T19:18:35;16.33;;;7.63;;
51048;SDS011;37084;55.228;36.450;2022-10-17T19:21:37;14.65;;;8.23;;
51048;SDS011;37084;55.228;36.450;2022-10-17T19:24:38;10.52;;;5.90;;
51048;SDS011;37084;55.228;36.450;2022-10-17T19:27:39;18.08;;;7.78;;
51048;SDS011;37084;55.228;36.450;2022-10-17T19:30:41;18.55;;;8.40;;
51048;SDS011;37084;55.228;36.450;2022-10-17T19:33:42;18.58;;;9.20;;
51048;SDS011;37084;55.228;36.450;2022-10-17T19:36:44;18.77;;;8.48;;
51048;SDS011;37084;55.228;36.450;2022-10-17T19:43:06;18.30;;;8.73;;
51048;SDS011;37084;55.228;36.450;2022-10-17T19:46:17;22.00;;;9.68;;
51048;SDS011;37084;55.228;36.450;2022-10-17T19:49:20;22.10;;;8.80;;
51048;SDS011;37084;55.228;36.450;2022-10-17T19:52:21;19.80;;;8.93;;
51048;SDS011;37084;55.228;36.450;2022-10-17T19:55:22;19.27;;;8.95;;
51048;SDS011;37084;55.228;36.450;2022-10-17T19:58:24;21.75;;;9.45;;
51048;SDS011;37084;55.228;36.450;2022-10-17T20:01:28;22.30;;;9.90;;
51048;SDS011;37084;55.228;36.450;2022-10-17T20:04:30;20.40;;;9.45;;
51048;SDS011;37084;55.228;36.450;2022-10-17T20:07:31;18.75;;;8.60;;
51048;SDS011;37084;55.228;36.450;2022-10-17T20:10:32;20.38;;;9.73;;
51048;SDS011;37084;55.228;36.450;2022-10-17T20:13:34;19.58;;;9.48;;
51048;SDS011;37084;55.228;36.450;2022-10-17T20:16:36;19.13;;;8.48;;
51048;SDS011;37084;55.228;36.450;2022-10-17T20:19:37;19.63;;;8.93;;
51048;SDS011;37084;55.228;36.450;2022-10-17T20:22:39;21.23;;;9.52;;
51048;SDS011;37084;55.228;36.450;2022-10-17T20:25:40;21.25;;;10.15;;
51048;SDS011;37084;55.228;36.450;2022-10-17T20:28:41;17.15;;;8.30;;
51048;SDS011;37084;55.228;36.450;2022-10-17T20:31:43;22.35;;;9.55;;
51048;SDS011;37084;55.228;36.450;2022-10-17T20:34:45;23.02;;;9.18;;
51048;SDS011;37084;55.228;36.450;2022-10-17T20:37:46;21.48;;;10.07;;
51048;SDS011;37084;55.228;36.450;2022-10-17T20:41:09;18.27;;;8.27;;